sensor_id;sensor_type;location;lat;lon;timestamp;P1;durP1;ratioP1;P2;durP2;ratioP2
5718;SDS011;2884;47.734;9.244;2024-01-27T00:01:34;2.13;;;1.90;;
5718;SDS011;2884;47.734;9.244;2024-01-27T00:04:00;1.97;;;1.80;;
5718;SDS011;2884;47.734;9.244;2024-01-27T00:06:26;3.40;;;2.00;;
5718;SDS011;2884;47.734;9.244;2024-01-27T00:08:51;2.10;;;1.77;;
5718;SDS011;2884;47.734;9.244;2024-01-27T00:11:17;2.20;;;1.83;;
5718;SDS011;2884;47.734;9.244;2024-01-27T00:13:43;6.70;;;2.00;;
5718;SDS011;2884;47.734;9.244;2024-01-27T00:16:08;3.00;;;2.00;;
5718;SDS011;2884;47.734;9.244;2024-01-27T00:18:36;1.60;;;1.33;;
5718;SDS011;2884;47.734;9.244;2024-01-27T00:21:02;4.53;;;2.07;;
5718;SDS011;2884;47.734;9.244;2024-01-27T00:23:27;2.53;;;1.80;;
5718;SDS011;2884;47.734;9.244;2024-01-27T00:25:53;2.43;;;1.77;;
5718;SDS011;2884;47.734;9.244;2024-01-27T00:28:18;2.77;;;1.87;;
5718;SDS011;2884;47.734;9.244;2024-01-27T00:30:44;2.00;;;1.40;;
5718;SDS011;2884;47.734;9.244;2024-01-27T00:33:09;1.07;;;1.00;;
5718;SDS011;2884;47.734;9.244;2024-01-27T00:35:35;3.73;;;2.07;;
5718;SDS011;2884;47.734;9.244;2024-01-27T00:38:00;2.60;;;1.87;;
5718;SDS011;2884;47.734;9.244;2024-01-27T00:40:26;3.30;;;2.40;;
5718;SDS011;2884;47.734;9.244;2024-01-27T00:42:51;3.10;;;2.10;;
5718;SDS011;2884;47.734;9.244;2024-01-27T00:45:17;1.03;;;1.00;;
5718;SDS011;2884;47.734;9.244;2024-01-27T00:47:43;1.30;;;1.20;;
5718;SDS011;2884;47.734;9.244;2024-01-27T00:50:09;0.90;;;0.90;;
5718;SDS011;2884;47.734;9.244;2024-01-27T00:52:35;2.83;;;1.30;;
5718;SDS011;2884;47.734;9.244;2024-01-27T00:55:00;0.90;;;0.90;;
5718;SDS011;2884;47.734;9.244;2024-01-27T00:57:26;1.20;;;1.20;;
5718;SDS011;2884;47.734;9.244;2024-01-27T00:59:52;1.83;;;1.30;;
5718;SDS011;2884;47.734;9.244;2024-01-27T01:02:17;1.10;;;1.00;;
5718;SDS011;2884;47.734;9.244;2024-01-27T01:04:43;2.27;;;1.20;;
5718;SDS011;2884;47.734;9.244;2024-01-27T01:07:10;1.10;;;1.10;;
5718;SDS011;2884;47.734;9.244;2024-01-27T01:09:35;1.13;;;1.03;;
5718;SDS011;2884;47.734;9.244;2024-01-27T01:12:01;2.47;;;1.30;;
5718;SDS011;2884;47.734;9.244;2024-01-27T01:14:27;2.83;;;1.30;;
5718;SDS011;2884;47.734;9.244;2024-01-27T01:16:53;1.23;;;1.07;;
5718;SDS011;2884;47.734;9.244;2024-01-27T01:19:18;1.40;;;1.30;;
5718;SDS011;2884;47.734;9.244;2024-01-27T01:21:44;4.13;;;1.27;;
5718;SDS011;2884;47.734;9.244;2024-01-27T01:24:09;0.90;;;0.90;;
5718;SDS011;2884;47.734;9.244;2024-01-27T01:26:35;1.43;;;0.83;;
5718;SDS011;2884;47.734;9.244;2024-01-27T01:29:00;1.23;;;1.13;;
5718;SDS011;2884;47.734;9.244;2024-01-27T01:31:26;1.50;;;1.40;;
5718;SDS011;2884;47.734;9.244;2024-01-27T01:33:51;3.30;;;1.23;;
5718;SDS011;2884;47.734;9.244;2024-01-27T01:36:17;1.63;;;1.20;;
5718;SDS011;2884;47.734;9.244;2024-01-27T01:38:43;1.30;;;1.20;;
5718;SDS011;2884;47.734;9.244;2024-01-27T01:41:08;3.47;;;1.50;;
5718;SDS011;2884;47.734;9.244;2024-01-27T01:43:33;3.03;;;1.40;;
5718;SDS011;2884;47.734;9.244;2024-01-27T01:45:59;4.00;;;1.17;;
5718;SDS011;2884;47.734;9.244;2024-01-27T01:48:25;1.03;;;1.00;;
5718;SDS011;2884;47.734;9.244;2024-01-27T01:50:51;1.50;;;1.20;;
5718;SDS011;2884;47.734;9.244;2024-01-27T01:53:17;2.10;;;1.20;;
5718;SDS011;2884;47.734;9.244;2024-01-27T01:55:43;1.90;;;1.20;;
5718;SDS011;2884;47.734;9.244;2024-01-27T01:58:09;1.90;;;1.70;;
5718;SDS011;2884;47.734;9.244;2024-01-27T02:00:34;3.37;;;1.63;;
5718;SDS011;2884;47.734;9.244;2024-01-27T02:03:00;1.73;;;1.30;;
5718;SDS011;2884;47.734;9.244;2024-01-27T02:05:25;1.63;;;1.50;;
5718;SDS011;2884;47.734;9.244;2024-01-27T02:07:51;1.47;;;1.37;;
5718;SDS011;2884;47.734;9.244;2024-01-27T02:10:17;2.43;;;1.43;;
5718;SDS011;2884;47.734;9.244;2024-01-27T02:12:46;1.53;;;1.43;;
5718;SDS011;2884;47.734;9.244;2024-01-27T02:15:12;2.10;;;1.40;;
5718;SDS011;2884;47.734;9.244;2024-01-27T02:17:38;1.27;;;1.17;;
5718;SDS011;2884;47.734;9.244;2024-01-27T02:20:05;3.47;;;1.20;;
5718;SDS011;2884;47.734;9.244;2024-01-27T02:22:32;2.20;;;1.37;;
5718;SDS011;2884;47.734;9.244;2024-01-27T02:24:58;2.10;;;1.40;;
5718;SDS011;2884;47.734;9.244;2024-01-27T02:27:24;2.87;;;1.30;;
5718;SDS011;2884;47.734;9.244;2024-01-27T02:29:49;1.87;;;1.60;;
5718;SDS011;2884;47.734;9.244;2024-01-27T02:32:15;2.00;;;1.07;;
5718;SDS011;2884;47.734;9.244;2024-01-27T02:34:40;1.63;;;1.17;;
5718;SDS011;2884;47.734;9.244;2024-01-27T02:37:06;2.00;;;1.27;;
5718;SDS011;2884;47.734;9.244;2024-01-27T02:39:32;1.10;;;1.00;;
5718;SDS011;2884;47.734;9.244;2024-01-27T02:41:57;2.30;;;1.60;;
5718;SDS011;2884;47.734;9.244;2024-01-27T02:44:23;2.40;;;1.60;;
5718;SDS011;2884;47.734;9.244;2024-01-27T02:46:48;1.50;;;1.40;;
5718;SDS011;2884;47.734;9.244;2024-01-27T02:49:14;1.40;;;1.30;;
5718;SDS011;2884;47.734;9.244;2024-01-27T02:51:39;1.40;;;1.30;;
5718;SDS011;2884;47.734;9.244;2024-01-27T02:54:05;1.63;;;1.53;;
5718;SDS011;2884;47.734;9.244;2024-01-27T02:56:30;0.93;;;0.93;;
5718;SDS011;2884;47.734;9.244;2024-01-27T02:58:56;1.87;;;1.50;;
5718;SDS011;2884;47.734;9.244;2024-01-27T03:01:21;1.23;;;1.20;;
5718;SDS011;2884;47.734;9.244;2024-01-27T03:03:47;1.47;;;1.37;;
5718;SDS011;2884;47.734;9.244;2024-01-27T03:06:13;2.47;;;1.27;;
5718;SDS011;2884;47.734;9.244;2024-01-27T03:08:38;2.27;;;1.40;;
5718;SDS011;2884;47.734;9.244;2024-01-27T03:11:04;1.27;;;1.13;;
5718;SDS011;2884;47.734;9.244;2024-01-27T03:13:29;4.80;;;1.43;;
5718;SDS011;2884;47.734;9.244;2024-01-27T03:15:55;1.20;;;1.20;;
5718;SDS011;2884;47.734;9.244;2024-01-27T03:18:21;2.50;;;1.20;;
5718;SDS011;2884;47.734;9.244;2024-01-27T03:20:47;2.43;;;1.27;;
5718;SDS011;2884;47.734;9.244;2024-01-27T03:23:12;2.95;;;1.20;;
5718;SDS011;2884;47.734;9.244;2024-01-27T03:25:38;2.30;;;1.63;;
5718;SDS011;2884;47.734;9.244;2024-01-27T03:28:04;2.87;;;1.70;;
5718;SDS011;2884;47.734;9.244;2024-01-27T03:30:29;1.73;;;1.40;;
5718;SDS011;2884;47.734;9.244;2024-01-27T03:32:55;2.10;;;1.27;;
5718;SDS011;2884;47.734;9.244;2024-01-27T03:35:20;1.40;;;1.30;;
5718;SDS011;2884;47.734;9.244;2024-01-27T03:37:46;2.10;;;1.30;;
5718;SDS011;2884;47.734;9.244;2024-01-27T03:40:11;1.47;;;1.37;;
5718;SDS011;2884;47.734;9.244;2024-01-27T03:42:37;1.95;;;1.70;;
5718;SDS011;2884;47.734;9.244;2024-01-27T03:45:03;1.80;;;1.70;;
5718;SDS011;2884;47.734;9.244;2024-01-27T03:47:28;3.53;;;1.30;;
5718;SDS011;2884;47.734;9.244;2024-01-27T03:49:54;1.20;;;1.20;;
5718;SDS011;2884;47.734;9.244;2024-01-27T03:52:19;3.03;;;1.60;;
5718;SDS011;2884;47.734;9.244;2024-01-27T03:54:45;1.10;;;1.10;;
5718;SDS011;2884;47.734;9.244;2024-01-27T03:57:11;2.10;;;1.50;;
5718;SDS011;2884;47.734;9.244;2024-01-27T03:59:36;1.23;;;1.17;;
5718;SDS011;2884;47.734;9.244;2024-01-27T04:02:02;1.63;;;1.30;;
5718;SDS011;2884;47.734;9.244;2024-01-27T04:04:27;6.33;;;1.63;;
5718;SDS011;2884;47.734;9.244;2024-01-27T04:06:53;3.00;;;1.60;;
5718;SDS011;2884;47.734;9.244;2024-01-27T04:09:18;5.00;;;1.87;;
5718;SDS011;2884;47.734;9.244;2024-01-27T04:11:44;8.63;;;2.27;;
5718;SDS011;2884;47.734;9.244;2024-01-27T04:14:09;1.60;;;1.47;;
5718;SDS011;2884;47.734;9.244;2024-01-27T04:16:35;1.37;;;1.20;;
5718;SDS011;2884;47.734;9.244;2024-01-27T04:19:01;4.20;;;1.43;;
5718;SDS011;2884;47.734;9.244;2024-01-27T04:21:26;3.03;;;1.43;;
5718;SDS011;2884;47.734;9.244;2024-01-27T04:23:51;6.13;;;1.43;;
5718;SDS011;2884;47.734;9.244;2024-01-27T04:26:17;1.60;;;1.50;;
5718;SDS011;2884;47.734;9.244;2024-01-27T04:28:43;2.90;;;1.40;;
5718;SDS011;2884;47.734;9.244;2024-01-27T04:31:08;3.23;;;2.00;;
5718;SDS011;2884;47.734;9.244;2024-01-27T04:33:34;6.72;;;2.30;;
5718;SDS011;2884;47.734;9.244;2024-01-27T04:36:00;5.63;;;2.80;;
5718;SDS011;2884;47.734;9.244;2024-01-27T04:38:25;10.97;;;4.80;;
5718;SDS011;2884;47.734;9.244;2024-01-27T04:40:51;9.53;;;4.27;;
5718;SDS011;2884;47.734;9.244;2024-01-27T04:43:17;10.10;;;4.63;;
5718;SDS011;2884;47.734;9.244;2024-01-27T04:45:43;9.23;;;3.92;;
5718;SDS011;2884;47.734;9.244;2024-01-27T04:48:09;7.80;;;4.10;;
5718;SDS011;2884;47.734;9.244;2024-01-27T04:50:35;6.97;;;3.50;;
5718;SDS011;2884;47.734;9.244;2024-01-27T04:53:01;7.50;;;3.40;;
5718;SDS011;2884;47.734;9.244;2024-01-27T04:55:27;10.57;;;4.43;;
5718;SDS011;2884;47.734;9.244;2024-01-27T04:57:52;4.73;;;3.50;;
5718;SDS011;2884;47.734;9.244;2024-01-27T05:00:18;7.87;;;3.20;;
5718;SDS011;2884;47.734;9.244;2024-01-27T05:02:44;8.93;;;4.00;;
5718;SDS011;2884;47.734;9.244;2024-01-27T05:05:10;6.72;;;3.70;;
5718;SDS011;2884;47.734;9.244;2024-01-27T05:07:37;6.53;;;3.40;;
5718;SDS011;2884;47.734;9.244;2024-01-27T05:10:03;7.72;;;3.95;;
5718;SDS011;2884;47.734;9.244;2024-01-27T05:12:29;10.30;;;4.18;;
5718;SDS011;2884;47.734;9.244;2024-01-27T05:14:55;9.73;;;4.70;;
5718;SDS011;2884;47.734;9.244;2024-01-27T05:17:20;8.43;;;3.87;;
5718;SDS011;2884;47.734;9.244;2024-01-27T05:19:46;4.20;;;3.10;;
5718;SDS011;2884;47.734;9.244;2024-01-27T05:22:11;6.03;;;3.13;;
5718;SDS011;2884;47.734;9.244;2024-01-27T05:24:37;9.10;;;3.13;;
5718;SDS011;2884;47.734;9.244;2024-01-27T05:27:03;4.87;;;2.90;;
5718;SDS011;2884;47.734;9.244;2024-01-27T05:29:29;6.32;;;2.88;;
5718;SDS011;2884;47.734;9.244;2024-01-27T05:31:54;2.47;;;2.13;;
5718;SDS011;2884;47.734;9.244;2024-01-27T05:34:20;3.03;;;1.87;;
5718;SDS011;2884;47.734;9.244;2024-01-27T05:36:49;4.65;;;1.88;;
5718;SDS011;2884;47.734;9.244;2024-01-27T05:39:14;1.67;;;1.58;;
5718;SDS011;2884;47.734;9.244;2024-01-27T05:41:39;4.23;;;1.90;;
5718;SDS011;2884;47.734;9.244;2024-01-27T05:44:05;2.43;;;2.20;;
5718;SDS011;2884;47.734;9.244;2024-01-27T05:46:31;6.33;;;2.20;;
5718;SDS011;2884;47.734;9.244;2024-01-27T05:48:56;1.83;;;1.73;;
5718;SDS011;2884;47.734;9.244;2024-01-27T05:51:26;2.10;;;1.70;;
5718;SDS011;2884;47.734;9.244;2024-01-27T05:53:52;2.67;;;1.80;;
5718;SDS011;2884;47.734;9.244;2024-01-27T05:56:18;5.27;;;1.80;;
5718;SDS011;2884;47.734;9.244;2024-01-27T05:58:47;5.53;;;1.95;;
5718;SDS011;2884;47.734;9.244;2024-01-27T06:01:12;6.28;;;2.70;;
5718;SDS011;2884;47.734;9.244;2024-01-27T06:03:40;10.97;;;7.20;;
5718;SDS011;2884;47.734;9.244;2024-01-27T06:06:06;6.35;;;3.45;;
5718;SDS011;2884;47.734;9.244;2024-01-27T06:08:32;3.03;;;2.73;;
5718;SDS011;2884;47.734;9.244;2024-01-27T06:10:57;4.23;;;3.10;;
5718;SDS011;2884;47.734;9.244;2024-01-27T06:13:23;4.07;;;2.60;;
5718;SDS011;2884;47.734;9.244;2024-01-27T06:15:49;3.93;;;2.80;;
5718;SDS011;2884;47.734;9.244;2024-01-27T06:18:15;4.18;;;2.80;;
5718;SDS011;2884;47.734;9.244;2024-01-27T06:20:41;5.77;;;2.60;;
5718;SDS011;2884;47.734;9.244;2024-01-27T06:23:07;5.57;;;2.37;;
5718;SDS011;2884;47.734;9.244;2024-01-27T06:25:33;5.57;;;2.60;;
5718;SDS011;2884;47.734;9.244;2024-01-27T06:27:59;3.10;;;2.22;;
5718;SDS011;2884;47.734;9.244;2024-01-27T06:30:25;2.40;;;2.20;;
5718;SDS011;2884;47.734;9.244;2024-01-27T06:32:50;3.50;;;2.60;;
5718;SDS011;2884;47.734;9.244;2024-01-27T06:35:16;4.27;;;2.43;;
5718;SDS011;2884;47.734;9.244;2024-01-27T06:37:42;2.53;;;2.30;;
5718;SDS011;2884;47.734;9.244;2024-01-27T06:40:07;3.37;;;2.77;;
5718;SDS011;2884;47.734;9.244;2024-01-27T06:42:36;3.05;;;2.10;;
5718;SDS011;2884;47.734;9.244;2024-01-27T06:45:02;3.23;;;2.40;;
5718;SDS011;2884;47.734;9.244;2024-01-27T06:47:28;2.30;;;1.97;;
5718;SDS011;2884;47.734;9.244;2024-01-27T06:49:54;2.30;;;2.03;;
5718;SDS011;2884;47.734;9.244;2024-01-27T06:52:19;1.97;;;1.67;;
5718;SDS011;2884;47.734;9.244;2024-01-27T06:54:45;3.03;;;2.50;;
5718;SDS011;2884;47.734;9.244;2024-01-27T06:57:17;4.70;;;2.00;;
5718;SDS011;2884;47.734;9.244;2024-01-27T06:59:44;4.40;;;2.65;;
5718;SDS011;2884;47.734;9.244;2024-01-27T07:02:10;8.10;;;4.27;;
5718;SDS011;2884;47.734;9.244;2024-01-27T07:04:39;17.80;;;7.15;;
5718;SDS011;2884;47.734;9.244;2024-01-27T07:07:04;8.97;;;4.53;;
5718;SDS011;2884;47.734;9.244;2024-01-27T07:09:30;7.27;;;3.03;;
5718;SDS011;2884;47.734;9.244;2024-01-27T07:11:55;2.40;;;2.20;;
5718;SDS011;2884;47.734;9.244;2024-01-27T07:14:21;3.40;;;2.13;;
5718;SDS011;2884;47.734;9.244;2024-01-27T07:16:46;3.53;;;2.27;;
5718;SDS011;2884;47.734;9.244;2024-01-27T07:19:12;2.00;;;1.60;;
5718;SDS011;2884;47.734;9.244;2024-01-27T07:21:39;4.38;;;2.20;;
5718;SDS011;2884;47.734;9.244;2024-01-27T07:24:04;4.27;;;1.93;;
5718;SDS011;2884;47.734;9.244;2024-01-27T07:26:30;2.00;;;1.73;;
5718;SDS011;2884;47.734;9.244;2024-01-27T07:28:57;2.40;;;1.80;;
5718;SDS011;2884;47.734;9.244;2024-01-27T07:31:22;5.30;;;1.80;;
5718;SDS011;2884;47.734;9.244;2024-01-27T07:33:49;4.70;;;2.05;;
5718;SDS011;2884;47.734;9.244;2024-01-27T07:36:15;2.33;;;1.83;;
5718;SDS011;2884;47.734;9.244;2024-01-27T07:38:41;2.63;;;2.43;;
5718;SDS011;2884;47.734;9.244;2024-01-27T07:41:06;8.40;;;3.80;;
5718;SDS011;2884;47.734;9.244;2024-01-27T07:43:32;10.17;;;4.57;;
5718;SDS011;2884;47.734;9.244;2024-01-27T07:45:57;3.90;;;3.47;;
5718;SDS011;2884;47.734;9.244;2024-01-27T07:48:23;5.80;;;3.23;;
5718;SDS011;2884;47.734;9.244;2024-01-27T07:50:48;5.30;;;3.80;;
5718;SDS011;2884;47.734;9.244;2024-01-27T07:53:15;6.20;;;3.58;;
5718;SDS011;2884;47.734;9.244;2024-01-27T07:55:41;7.75;;;4.40;;
5718;SDS011;2884;47.734;9.244;2024-01-27T07:58:07;5.50;;;4.10;;
5718;SDS011;2884;47.734;9.244;2024-01-27T08:00:32;7.27;;;4.20;;
5718;SDS011;2884;47.734;9.244;2024-01-27T08:02:58;6.03;;;4.10;;
5718;SDS011;2884;47.734;9.244;2024-01-27T08:05:23;9.60;;;5.47;;
5718;SDS011;2884;47.734;9.244;2024-01-27T08:07:49;8.97;;;4.97;;
5718;SDS011;2884;47.734;9.244;2024-01-27T08:10:15;9.63;;;4.80;;
5718;SDS011;2884;47.734;9.244;2024-01-27T08:12:40;10.23;;;4.13;;
5718;SDS011;2884;47.734;9.244;2024-01-27T08:15:06;5.47;;;3.60;;
5718;SDS011;2884;47.734;9.244;2024-01-27T08:17:32;11.23;;;4.68;;
5718;SDS011;2884;47.734;9.244;2024-01-27T08:19:58;4.10;;;3.23;;
5718;SDS011;2884;47.734;9.244;2024-01-27T08:22:24;6.65;;;3.33;;
5718;SDS011;2884;47.734;9.244;2024-01-27T08:24:50;4.13;;;2.40;;
5718;SDS011;2884;47.734;9.244;2024-01-27T08:27:15;3.17;;;2.20;;
5718;SDS011;2884;47.734;9.244;2024-01-27T08:29:41;4.93;;;2.30;;
5718;SDS011;2884;47.734;9.244;2024-01-27T08:32:06;4.40;;;2.20;;
5718;SDS011;2884;47.734;9.244;2024-01-27T08:34:32;3.37;;;2.50;;
5718;SDS011;2884;47.734;9.244;2024-01-27T08:37:00;3.10;;;2.20;;
5718;SDS011;2884;47.734;9.244;2024-01-27T08:39:26;2.22;;;1.90;;
5718;SDS011;2884;47.734;9.244;2024-01-27T08:41:51;4.77;;;1.90;;
5718;SDS011;2884;47.734;9.244;2024-01-27T08:44:17;5.33;;;2.50;;
5718;SDS011;2884;47.734;9.244;2024-01-27T08:46:43;3.63;;;2.40;;
5718;SDS011;2884;47.734;9.244;2024-01-27T08:49:08;4.70;;;2.13;;
5718;SDS011;2884;47.734;9.244;2024-01-27T08:51:33;6.87;;;2.57;;
5718;SDS011;2884;47.734;9.244;2024-01-27T08:53:59;8.03;;;2.60;;
5718;SDS011;2884;47.734;9.244;2024-01-27T08:56:25;4.03;;;2.27;;
5718;SDS011;2884;47.734;9.244;2024-01-27T08:58:50;5.53;;;2.53;;
5718;SDS011;2884;47.734;9.244;2024-01-27T09:01:17;3.63;;;2.43;;
5718;SDS011;2884;47.734;9.244;2024-01-27T09:03:43;2.23;;;1.80;;
5718;SDS011;2884;47.734;9.244;2024-01-27T09:06:09;6.57;;;2.20;;
5718;SDS011;2884;47.734;9.244;2024-01-27T09:08:35;7.90;;;3.20;;
5718;SDS011;2884;47.734;9.244;2024-01-27T09:11:04;6.13;;;3.20;;
5718;SDS011;2884;47.734;9.244;2024-01-27T09:13:29;13.10;;;3.00;;
5718;SDS011;2884;47.734;9.244;2024-01-27T09:15:56;5.27;;;3.27;;
5718;SDS011;2884;47.734;9.244;2024-01-27T09:18:22;3.83;;;3.10;;
5718;SDS011;2884;47.734;9.244;2024-01-27T09:20:47;3.37;;;2.43;;
5718;SDS011;2884;47.734;9.244;2024-01-27T09:23:13;4.93;;;3.20;;
5718;SDS011;2884;47.734;9.244;2024-01-27T09:25:39;11.77;;;5.57;;
5718;SDS011;2884;47.734;9.244;2024-01-27T09:28:04;7.80;;;3.67;;
5718;SDS011;2884;47.734;9.244;2024-01-27T09:30:30;7.67;;;3.70;;
5718;SDS011;2884;47.734;9.244;2024-01-27T09:32:55;6.30;;;3.00;;
5718;SDS011;2884;47.734;9.244;2024-01-27T09:35:21;4.73;;;2.70;;
5718;SDS011;2884;47.734;9.244;2024-01-27T09:37:47;5.63;;;2.80;;
5718;SDS011;2884;47.734;9.244;2024-01-27T09:40:12;6.30;;;2.80;;
5718;SDS011;2884;47.734;9.244;2024-01-27T09:42:38;6.23;;;3.00;;
5718;SDS011;2884;47.734;9.244;2024-01-27T09:45:08;5.23;;;2.50;;
5718;SDS011;2884;47.734;9.244;2024-01-27T09:47:34;6.17;;;2.47;;
5718;SDS011;2884;47.734;9.244;2024-01-27T09:50:00;6.37;;;2.60;;
5718;SDS011;2884;47.734;9.244;2024-01-27T09:52:26;4.93;;;3.10;;
5718;SDS011;2884;47.734;9.244;2024-01-27T09:54:51;4.50;;;2.50;;
5718;SDS011;2884;47.734;9.244;2024-01-27T09:57:17;9.17;;;3.07;;
5718;SDS011;2884;47.734;9.244;2024-01-27T09:59:45;5.53;;;2.33;;
5718;SDS011;2884;47.734;9.244;2024-01-27T10:02:11;6.80;;;2.53;;
5718;SDS011;2884;47.734;9.244;2024-01-27T10:04:41;7.60;;;2.43;;
5718;SDS011;2884;47.734;9.244;2024-01-27T10:07:08;7.90;;;2.27;;
5718;SDS011;2884;47.734;9.244;2024-01-27T10:09:33;2.83;;;2.07;;
5718;SDS011;2884;47.734;9.244;2024-01-27T10:11:59;2.73;;;2.00;;
5718;SDS011;2884;47.734;9.244;2024-01-27T10:14:26;7.30;;;2.27;;
5718;SDS011;2884;47.734;9.244;2024-01-27T10:17:02;5.10;;;2.03;;
5718;SDS011;2884;47.734;9.244;2024-01-27T10:19:28;7.23;;;2.40;;
5718;SDS011;2884;47.734;9.244;2024-01-27T10:21:59;3.40;;;2.20;;
5718;SDS011;2884;47.734;9.244;2024-01-27T10:24:26;5.03;;;2.23;;
5718;SDS011;2884;47.734;9.244;2024-01-27T10:26:58;5.37;;;2.67;;
5718;SDS011;2884;47.734;9.244;2024-01-27T10:29:24;6.83;;;2.60;;
5718;SDS011;2884;47.734;9.244;2024-01-27T10:31:50;6.53;;;2.30;;
5718;SDS011;2884;47.734;9.244;2024-01-27T10:34:19;2.97;;;2.27;;
5718;SDS011;2884;47.734;9.244;2024-01-27T10:36:45;7.13;;;2.23;;
5718;SDS011;2884;47.734;9.244;2024-01-27T10:41:46;6.00;;;2.63;;
5718;SDS011;2884;47.734;9.244;2024-01-27T10:44:15;3.47;;;2.20;;
5718;SDS011;2884;47.734;9.244;2024-01-27T10:46:45;6.43;;;2.40;;
5718;SDS011;2884;47.734;9.244;2024-01-27T10:49:13;6.03;;;2.77;;
5718;SDS011;2884;47.734;9.244;2024-01-27T10:51:46;4.13;;;2.47;;
5718;SDS011;2884;47.734;9.244;2024-01-27T10:54:23;5.40;;;2.30;;
5718;SDS011;2884;47.734;9.244;2024-01-27T10:56:51;7.43;;;2.67;;
5718;SDS011;2884;47.734;9.244;2024-01-27T10:59:19;5.07;;;2.00;;
5718;SDS011;2884;47.734;9.244;2024-01-27T11:01:47;5.77;;;2.63;;
5718;SDS011;2884;47.734;9.244;2024-01-27T11:04:16;8.80;;;2.77;;
5718;SDS011;2884;47.734;9.244;2024-01-27T11:06:42;4.90;;;2.30;;
5718;SDS011;2884;47.734;9.244;2024-01-27T11:09:09;7.70;;;2.20;;
5718;SDS011;2884;47.734;9.244;2024-01-27T11:11:36;3.57;;;1.67;;
5718;SDS011;2884;47.734;9.244;2024-01-27T11:14:03;5.40;;;3.13;;
5718;SDS011;2884;47.734;9.244;2024-01-27T11:16:28;4.80;;;2.97;;
5718;SDS011;2884;47.734;9.244;2024-01-27T11:18:53;6.33;;;2.37;;
5718;SDS011;2884;47.734;9.244;2024-01-27T11:21:19;9.17;;;2.87;;
5718;SDS011;2884;47.734;9.244;2024-01-27T11:23:45;5.63;;;2.60;;
5718;SDS011;2884;47.734;9.244;2024-01-27T11:26:17;4.07;;;2.20;;
5718;SDS011;2884;47.734;9.244;2024-01-27T11:28:47;6.77;;;2.93;;
5718;SDS011;2884;47.734;9.244;2024-01-27T11:31:16;5.00;;;2.63;;
5718;SDS011;2884;47.734;9.244;2024-01-27T11:33:44;9.03;;;2.80;;
5718;SDS011;2884;47.734;9.244;2024-01-27T11:36:45;12.30;;;3.30;;
5718;SDS011;2884;47.734;9.244;2024-01-27T11:39:03;5.53;;;2.13;;
5718;SDS011;2884;47.734;9.244;2024-01-27T11:41:29;4.00;;;2.50;;
5718;SDS011;2884;47.734;9.244;2024-01-27T11:43:56;6.00;;;2.30;;
5718;SDS011;2884;47.734;9.244;2024-01-27T11:46:23;4.47;;;2.10;;
5718;SDS011;2884;47.734;9.244;2024-01-27T11:48:49;5.77;;;2.30;;
5718;SDS011;2884;47.734;9.244;2024-01-27T11:51:15;6.17;;;2.57;;
5718;SDS011;2884;47.734;9.244;2024-01-27T11:53:40;6.07;;;2.70;;
5718;SDS011;2884;47.734;9.244;2024-01-27T11:56:06;4.50;;;1.90;;
5718;SDS011;2884;47.734;9.244;2024-01-27T11:58:32;3.30;;;2.00;;
5718;SDS011;2884;47.734;9.244;2024-01-27T12:00:58;8.80;;;3.13;;
5718;SDS011;2884;47.734;9.244;2024-01-27T12:03:24;9.20;;;2.07;;
5718;SDS011;2884;47.734;9.244;2024-01-27T12:05:50;6.70;;;2.20;;
5718;SDS011;2884;47.734;9.244;2024-01-27T12:08:25;4.40;;;2.20;;
5718;SDS011;2884;47.734;9.244;2024-01-27T12:10:53;2.40;;;2.03;;
5718;SDS011;2884;47.734;9.244;2024-01-27T12:13:19;3.67;;;1.87;;
5718;SDS011;2884;47.734;9.244;2024-01-27T12:15:44;5.37;;;2.20;;
5718;SDS011;2884;47.734;9.244;2024-01-27T12:18:10;6.17;;;3.17;;
5718;SDS011;2884;47.734;9.244;2024-01-27T12:20:37;5.40;;;2.30;;
5718;SDS011;2884;47.734;9.244;2024-01-27T12:23:03;8.00;;;2.10;;
5718;SDS011;2884;47.734;9.244;2024-01-27T12:25:32;6.70;;;2.73;;
5718;SDS011;2884;47.734;9.244;2024-01-27T12:28:02;6.73;;;2.63;;
5718;SDS011;2884;47.734;9.244;2024-01-27T12:30:36;8.93;;;2.47;;
5718;SDS011;2884;47.734;9.244;2024-01-27T12:33:09;4.50;;;3.20;;
5718;SDS011;2884;47.734;9.244;2024-01-27T12:35:35;6.90;;;2.77;;
5718;SDS011;2884;47.734;9.244;2024-01-27T12:38:05;6.97;;;2.50;;
5718;SDS011;2884;47.734;9.244;2024-01-27T12:40:31;7.50;;;2.50;;
5718;SDS011;2884;47.734;9.244;2024-01-27T12:42:56;6.23;;;2.87;;
5718;SDS011;2884;47.734;9.244;2024-01-27T12:45:22;4.60;;;2.43;;
5718;SDS011;2884;47.734;9.244;2024-01-27T12:47:47;9.33;;;2.57;;
5718;SDS011;2884;47.734;9.244;2024-01-27T12:50:13;4.97;;;2.50;;
5718;SDS011;2884;47.734;9.244;2024-01-27T12:52:39;3.63;;;2.50;;
5718;SDS011;2884;47.734;9.244;2024-01-27T12:55:04;8.13;;;3.00;;
5718;SDS011;2884;47.734;9.244;2024-01-27T12:57:31;5.70;;;2.87;;
5718;SDS011;2884;47.734;9.244;2024-01-27T12:59:56;5.23;;;2.17;;
5718;SDS011;2884;47.734;9.244;2024-01-27T13:02:22;3.20;;;2.33;;
5718;SDS011;2884;47.734;9.244;2024-01-27T13:04:47;5.60;;;2.77;;
5718;SDS011;2884;47.734;9.244;2024-01-27T13:07:13;11.63;;;2.77;;
5718;SDS011;2884;47.734;9.244;2024-01-27T13:09:39;9.10;;;3.00;;
5718;SDS011;2884;47.734;9.244;2024-01-27T13:12:05;11.90;;;2.97;;
5718;SDS011;2884;47.734;9.244;2024-01-27T13:14:31;4.50;;;1.90;;
5718;SDS011;2884;47.734;9.244;2024-01-27T13:16:56;3.07;;;2.17;;
5718;SDS011;2884;47.734;9.244;2024-01-27T13:19:24;3.00;;;1.83;;
5718;SDS011;2884;47.734;9.244;2024-01-27T13:21:51;6.13;;;2.10;;
5718;SDS011;2884;47.734;9.244;2024-01-27T13:24:16;6.53;;;2.30;;
5718;SDS011;2884;47.734;9.244;2024-01-27T13:26:42;3.90;;;2.40;;
5718;SDS011;2884;47.734;9.244;2024-01-27T13:29:07;6.13;;;1.60;;
5718;SDS011;2884;47.734;9.244;2024-01-27T13:31:33;3.03;;;1.93;;
5718;SDS011;2884;47.734;9.244;2024-01-27T13:33:59;5.83;;;1.80;;
5718;SDS011;2884;47.734;9.244;2024-01-27T13:36:25;13.10;;;6.50;;
5718;SDS011;2884;47.734;9.244;2024-01-27T13:38:51;8.43;;;3.43;;
5718;SDS011;2884;47.734;9.244;2024-01-27T13:41:17;8.30;;;3.50;;
5718;SDS011;2884;47.734;9.244;2024-01-27T13:43:43;5.90;;;2.73;;
5718;SDS011;2884;47.734;9.244;2024-01-27T13:46:09;7.23;;;3.20;;
5718;SDS011;2884;47.734;9.244;2024-01-27T13:48:34;6.07;;;2.80;;
5718;SDS011;2884;47.734;9.244;2024-01-27T13:51:00;4.87;;;2.00;;
5718;SDS011;2884;47.734;9.244;2024-01-27T13:53:25;7.33;;;3.33;;
5718;SDS011;2884;47.734;9.244;2024-01-27T13:55:51;5.50;;;3.23;;
5718;SDS011;2884;47.734;9.244;2024-01-27T13:58:20;19.10;;;7.73;;
5718;SDS011;2884;47.734;9.244;2024-01-27T14:00:45;13.40;;;3.20;;
5718;SDS011;2884;47.734;9.244;2024-01-27T14:03:11;9.13;;;3.07;;
5718;SDS011;2884;47.734;9.244;2024-01-27T14:05:37;10.00;;;2.40;;
5718;SDS011;2884;47.734;9.244;2024-01-27T14:08:03;4.77;;;2.00;;
5718;SDS011;2884;47.734;9.244;2024-01-27T14:10:31;10.87;;;4.73;;
5718;SDS011;2884;47.734;9.244;2024-01-27T14:12:57;5.90;;;2.60;;
5718;SDS011;2884;47.734;9.244;2024-01-27T14:15:23;4.70;;;1.60;;
5718;SDS011;2884;47.734;9.244;2024-01-27T14:17:48;4.67;;;1.70;;
5718;SDS011;2884;47.734;9.244;2024-01-27T14:20:14;4.77;;;1.43;;
5718;SDS011;2884;47.734;9.244;2024-01-27T14:22:40;5.80;;;1.50;;
5718;SDS011;2884;47.734;9.244;2024-01-27T14:25:05;9.17;;;2.10;;
5718;SDS011;2884;47.734;9.244;2024-01-27T14:27:33;4.43;;;1.73;;
5718;SDS011;2884;47.734;9.244;2024-01-27T14:30:00;3.60;;;1.83;;
5718;SDS011;2884;47.734;9.244;2024-01-27T14:32:25;3.20;;;1.90;;
5718;SDS011;2884;47.734;9.244;2024-01-27T14:34:51;6.30;;;1.90;;
5718;SDS011;2884;47.734;9.244;2024-01-27T14:37:16;2.17;;;1.63;;
5718;SDS011;2884;47.734;9.244;2024-01-27T14:39:43;4.80;;;1.73;;
5718;SDS011;2884;47.734;9.244;2024-01-27T14:42:11;7.67;;;1.90;;
5718;SDS011;2884;47.734;9.244;2024-01-27T14:44:40;8.37;;;2.63;;
5718;SDS011;2884;47.734;9.244;2024-01-27T14:47:05;6.57;;;2.07;;
5718;SDS011;2884;47.734;9.244;2024-01-27T14:49:32;2.30;;;2.00;;
5718;SDS011;2884;47.734;9.244;2024-01-27T14:51:57;3.40;;;1.83;;
5718;SDS011;2884;47.734;9.244;2024-01-27T14:54:23;3.93;;;2.27;;
5718;SDS011;2884;47.734;9.244;2024-01-27T14:56:48;9.97;;;2.43;;
5718;SDS011;2884;47.734;9.244;2024-01-27T14:59:14;6.30;;;1.97;;
5718;SDS011;2884;47.734;9.244;2024-01-27T15:01:40;4.17;;;2.10;;
5718;SDS011;2884;47.734;9.244;2024-01-27T15:04:06;6.87;;;1.83;;
5718;SDS011;2884;47.734;9.244;2024-01-27T15:06:32;2.70;;;1.73;;
5718;SDS011;2884;47.734;9.244;2024-01-27T15:08:57;4.90;;;2.10;;
5718;SDS011;2884;47.734;9.244;2024-01-27T15:11:23;6.87;;;2.33;;